CYBW/YBW METAR and TAF weather

Enter ICAO airport designator
Station Type Date Time Source
CYBW METAR 2019/04/25 22:00 UTC NOAA

CYBW 252200Z AUTO 09006KT 070V160 9SM CLR 11/M11 A3005 RMK SLP212 DENSITY ALT 4200FT


Station Type Date Time Source
CYBW Decoded METAR 2019/04/25 22:00 UTC NOAA

Calgary / Springbank, Canada (CYBW) 51-06N 114-22W
Apr 25, 2019 - 06:00 PM EDT / 2019.04.25 2200 UTC
Wind: from the E (090 degrees) at 7 MPH (6 KT) (direction variable):0
Visibility: 9 mile(s):0
Sky conditions: clear
Temperature: 51 F (11 C)
Dew Point: 12 F (-11 C)
Relative Humidity: 20%
Pressure (altimeter): 30.05 in. Hg (1017 hPa)
ob: CYBW 252200Z AUTO 09006KT 070V160 9SM CLR 11/M11 A3005 RMK SLP212 DENSITY ALT 4200FT
cycle: 22

Station Type Date Time Source
CYBW TAF 2019/04/25 18:00 UTC NOAA

TAF CYBW 251738Z 2518/2604 16010KT P6SM FEW040
FM252100 18010KT P6SM SCT070
TEMPO 2521/2603 BKN070
BECMG 2601/2603 VRB03KT
FM260300 VRB03KT P6SM BKN090 OVC180
RMK FCST BASED ON AUTO OBS. NXT FCST BY 260000Z

Example: see airport list